sensor_id;sensor_type;location;lat;lon;timestamp;temperature;humidity
13346;DHT22;6742;48.036;15.780;2023-04-01T00:01:41;9.60;99.90
13346;DHT22;6742;48.036;15.780;2023-04-01T00:04:09;9.60;99.90
13346;DHT22;6742;48.036;15.780;2023-04-01T00:06:39;9.60;99.90
13346;DHT22;6742;48.036;15.780;2023-04-01T00:09:06;9.60;99.90
13346;DHT22;6742;48.036;15.780;2023-04-01T00:11:33;9.60;99.90
13346;DHT22;6742;48.036;15.780;2023-04-01T00:14:00;9.70;99.90
13346;DHT22;6742;48.036;15.780;2023-04-01T00:16:27;9.60;99.90
13346;DHT22;6742;48.036;15.780;2023-04-01T00:18:54;9.60;99.90
13346;DHT22;6742;48.036;15.780;2023-04-01T00:21:22;9.60;99.90
13346;DHT22;6742;48.036;15.780;2023-04-01T00:23:49;9.50;99.90
13346;DHT22;6742;48.036;15.780;2023-04-01T00:26:16;9.50;99.90
13346;DHT22;6742;48.036;15.780;2023-04-01T00:28:46;9.50;99.90
13346;DHT22;6742;48.036;15.780;2023-04-01T00:31:13;9.50;99.90
13346;DHT22;6742;48.036;15.780;2023-04-01T00:33:40;9.40;99.90
13346;DHT22;6742;48.036;15.780;2023-04-01T00:36:09;9.40;99.90
13346;DHT22;6742;48.036;15.780;2023-04-01T00:38:38;9.40;99.90
13346;DHT22;6742;48.036;15.780;2023-04-01T00:41:06;9.40;99.90
13346;DHT22;6742;48.036;15.780;2023-04-01T00:43:34;9.40;99.90
13346;DHT22;6742;48.036;15.780;2023-04-01T00:46:01;9.40;99.90
13346;DHT22;6742;48.036;15.780;2023-04-01T00:48:30;9.30;99.90
13346;DHT22;6742;48.036;15.780;2023-04-01T00:51:01;9.30;99.90
13346;DHT22;6742;48.036;15.780;2023-04-01T00:53:30;9.30;99.90
13346;DHT22;6742;48.036;15.780;2023-04-01T00:56:03;9.30;99.90
13346;DHT22;6742;48.036;15.780;2023-04-01T00:58:34;9.30;99.90
13346;DHT22;6742;48.036;15.780;2023-04-01T01:01:02;9.40;99.90
13346;DHT22;6742;48.036;15.780;2023-04-01T01:03:29;9.40;99.90
13346;DHT22;6742;48.036;15.780;2023-04-01T01:06:10;9.40;99.90
13346;DHT22;6742;48.036;15.780;2023-04-01T01:08:52;9.40;99.90
13346;DHT22;6742;48.036;15.780;2023-04-01T01:11:32;9.40;99.90
13346;DHT22;6742;48.036;15.780;2023-04-01T01:14:07;9.40;99.90
13346;DHT22;6742;48.036;15.780;2023-04-01T01:16:43;9.40;99.90
13346;DHT22;6742;48.036;15.780;2023-04-01T01:19:24;9.30;99.90
13346;DHT22;6742;48.036;15.780;2023-04-01T01:22:11;9.20;99.90
13346;DHT22;6742;48.036;15.780;2023-04-01T01:24:55;9.20;99.90
13346;DHT22;6742;48.036;15.780;2023-04-01T01:27:26;9.20;99.90
13346;DHT22;6742;48.036;15.780;2023-04-01T01:30:26;9.20;99.90
13346;DHT22;6742;48.036;15.780;2023-04-01T01:35:56;9.10;99.90
13346;DHT22;6742;48.036;15.780;2023-04-01T01:38:27;9.10;99.90
13346;DHT22;6742;48.036;15.780;2023-04-01T01:40:57;9.00;99.90
13346;DHT22;6742;48.036;15.780;2023-04-01T01:43:29;9.00;99.90
13346;DHT22;6742;48.036;15.780;2023-04-01T01:45:59;9.00;99.90
13346;DHT22;6742;48.036;15.780;2023-04-01T01:48:28;9.00;99.90
13346;DHT22;6742;48.036;15.780;2023-04-01T01:50:57;8.90;99.90
13346;DHT22;6742;48.036;15.780;2023-04-01T01:53:25;8.90;99.90
13346;DHT22;6742;48.036;15.780;2023-04-01T01:55:52;8.80;99.90
13346;DHT22;6742;48.036;15.780;2023-04-01T01:58:23;8.80;99.90
13346;DHT22;6742;48.036;15.780;2023-04-01T02:00:54;8.80;99.90
13346;DHT22;6742;48.036;15.780;2023-04-01T02:03:24;8.80;99.90
13346;DHT22;6742;48.036;15.780;2023-04-01T02:05:55;8.80;99.90
13346;DHT22;6742;48.036;15.780;2023-04-01T02:08:27;8.70;99.90
13346;DHT22;6742;48.036;15.780;2023-04-01T02:11:01;8.70;99.90
13346;DHT22;6742;48.036;15.780;2023-04-01T02:13:31;8.60;99.90
13346;DHT22;6742;48.036;15.780;2023-04-01T02:16:02;8.60;99.90
13346;DHT22;6742;48.036;15.780;2023-04-01T02:18:34;8.70;99.90
13346;DHT22;6742;48.036;15.780;2023-04-01T02:21:03;8.50;99.90
13346;DHT22;6742;48.036;15.780;2023-04-01T02:23:35;8.50;99.90
13346;DHT22;6742;48.036;15.780;2023-04-01T02:26:03;8.50;99.90
13346;DHT22;6742;48.036;15.780;2023-04-01T02:28:33;8.60;99.90
13346;DHT22;6742;48.036;15.780;2023-04-01T02:31:01;8.60;99.90
13346;DHT22;6742;48.036;15.780;2023-04-01T02:33:30;8.60;99.90
13346;DHT22;6742;48.036;15.780;2023-04-01T02:35:57;8.60;99.90
13346;DHT22;6742;48.036;15.780;2023-04-01T02:38:25;8.60;99.90
13346;DHT22;6742;48.036;15.780;2023-04-01T02:40:58;8.60;99.90
13346;DHT22;6742;48.036;15.780;2023-04-01T02:43:26;8.60;99.90
13346;DHT22;6742;48.036;15.780;2023-04-01T02:45:56;8.60;99.90
13346;DHT22;6742;48.036;15.780;2023-04-01T02:48:23;8.60;99.90
13346;DHT22;6742;48.036;15.780;2023-04-01T02:50:49;8.60;99.90
13346;DHT22;6742;48.036;15.780;2023-04-01T02:53:17;8.60;99.90
13346;DHT22;6742;48.036;15.780;2023-04-01T02:55:44;8.60;99.90
13346;DHT22;6742;48.036;15.780;2023-04-01T02:58:12;8.50;99.90
13346;DHT22;6742;48.036;15.780;2023-04-01T03:00:39;8.50;99.90
13346;DHT22;6742;48.036;15.780;2023-04-01T03:03:06;8.50;99.90
13346;DHT22;6742;48.036;15.780;2023-04-01T03:05:33;8.50;99.90
13346;DHT22;6742;48.036;15.780;2023-04-01T03:08:00;8.50;99.90
13346;DHT22;6742;48.036;15.780;2023-04-01T03:10:28;8.50;99.90
13346;DHT22;6742;48.036;15.780;2023-04-01T03:12:55;8.50;99.90
13346;DHT22;6742;48.036;15.780;2023-04-01T03:15:23;8.50;99.90
13346;DHT22;6742;48.036;15.780;2023-04-01T03:17:50;8.50;99.90
13346;DHT22;6742;48.036;15.780;2023-04-01T03:20:17;8.50;99.90
13346;DHT22;6742;48.036;15.780;2023-04-01T03:22:44;8.50;99.90
13346;DHT22;6742;48.036;15.780;2023-04-01T03:25:12;8.50;99.90
13346;DHT22;6742;48.036;15.780;2023-04-01T03:27:39;8.60;99.90
13346;DHT22;6742;48.036;15.780;2023-04-01T03:30:07;8.60;99.90
13346;DHT22;6742;48.036;15.780;2023-04-01T03:32:36;8.60;99.90
13346;DHT22;6742;48.036;15.780;2023-04-01T03:35:04;8.60;99.90
13346;DHT22;6742;48.036;15.780;2023-04-01T03:37:31;8.60;99.90
13346;DHT22;6742;48.036;15.780;2023-04-01T03:39:58;8.60;99.90
13346;DHT22;6742;48.036;15.780;2023-04-01T03:42:24;8.60;99.90
13346;DHT22;6742;48.036;15.780;2023-04-01T03:44:52;8.60;99.90
13346;DHT22;6742;48.036;15.780;2023-04-01T03:47:19;8.60;99.90
13346;DHT22;6742;48.036;15.780;2023-04-01T03:49:47;8.60;99.90
13346;DHT22;6742;48.036;15.780;2023-04-01T03:52:14;8.60;99.90
13346;DHT22;6742;48.036;15.780;2023-04-01T03:54:41;8.60;99.90
13346;DHT22;6742;48.036;15.780;2023-04-01T03:57:08;8.60;99.90
13346;DHT22;6742;48.036;15.780;2023-04-01T03:59:35;8.60;99.90
13346;DHT22;6742;48.036;15.780;2023-04-01T04:02:02;8.50;99.90
13346;DHT22;6742;48.036;15.780;2023-04-01T04:04:29;8.50;99.90
13346;DHT22;6742;48.036;15.780;2023-04-01T04:06:57;8.50;99.90
13346;DHT22;6742;48.036;15.780;2023-04-01T04:09:24;8.50;99.90
13346;DHT22;6742;48.036;15.780;2023-04-01T04:11:51;8.50;99.90
13346;DHT22;6742;48.036;15.780;2023-04-01T04:14:18;8.50;99.90
13346;DHT22;6742;48.036;15.780;2023-04-01T04:16:45;8.50;99.90
13346;DHT22;6742;48.036;15.780;2023-04-01T04:19:12;8.60;99.90
13346;DHT22;6742;48.036;15.780;2023-04-01T04:21:40;8.60;99.90
13346;DHT22;6742;48.036;15.780;2023-04-01T04:24:08;8.60;99.90
13346;DHT22;6742;48.036;15.780;2023-04-01T04:26:36;8.60;99.90
13346;DHT22;6742;48.036;15.780;2023-04-01T04:29:03;8.60;99.90
13346;DHT22;6742;48.036;15.780;2023-04-01T04:31:30;8.60;99.90
13346;DHT22;6742;48.036;15.780;2023-04-01T04:33:59;8.50;99.90
13346;DHT22;6742;48.036;15.780;2023-04-01T04:36:26;8.50;99.90
13346;DHT22;6742;48.036;15.780;2023-04-01T04:38:53;8.50;99.90
13346;DHT22;6742;48.036;15.780;2023-04-01T04:41:25;8.50;99.90
13346;DHT22;6742;48.036;15.780;2023-04-01T04:43:53;8.50;99.90
13346;DHT22;6742;48.036;15.780;2023-04-01T04:46:20;8.50;99.90
13346;DHT22;6742;48.036;15.780;2023-04-01T04:48:47;8.50;99.90
13346;DHT22;6742;48.036;15.780;2023-04-01T04:51:15;8.40;99.90
13346;DHT22;6742;48.036;15.780;2023-04-01T04:53:42;8.40;99.90
13346;DHT22;6742;48.036;15.780;2023-04-01T04:56:10;8.50;99.90
13346;DHT22;6742;48.036;15.780;2023-04-01T04:58:39;8.40;99.90
13346;DHT22;6742;48.036;15.780;2023-04-01T05:01:08;8.50;99.90
13346;DHT22;6742;48.036;15.780;2023-04-01T05:03:36;8.40;99.90
13346;DHT22;6742;48.036;15.780;2023-04-01T05:06:03;8.50;99.90
13346;DHT22;6742;48.036;15.780;2023-04-01T05:08:30;8.50;99.90
13346;DHT22;6742;48.036;15.780;2023-04-01T05:10:58;8.50;99.90
13346;DHT22;6742;48.036;15.780;2023-04-01T05:13:25;8.50;99.90
13346;DHT22;6742;48.036;15.780;2023-04-01T05:15:53;8.60;99.90
13346;DHT22;6742;48.036;15.780;2023-04-01T05:18:21;8.60;99.90
13346;DHT22;6742;48.036;15.780;2023-04-01T05:20:49;8.60;99.90
13346;DHT22;6742;48.036;15.780;2023-04-01T05:23:16;8.60;99.90
13346;DHT22;6742;48.036;15.780;2023-04-01T05:25:44;8.60;99.90
13346;DHT22;6742;48.036;15.780;2023-04-01T05:28:11;8.60;99.90
13346;DHT22;6742;48.036;15.780;2023-04-01T05:30:40;8.60;99.90
13346;DHT22;6742;48.036;15.780;2023-04-01T05:33:09;8.60;99.90
13346;DHT22;6742;48.036;15.780;2023-04-01T05:35:36;8.60;99.90
13346;DHT22;6742;48.036;15.780;2023-04-01T05:38:03;8.50;99.90
13346;DHT22;6742;48.036;15.780;2023-04-01T05:40:31;8.60;99.90
13346;DHT22;6742;48.036;15.780;2023-04-01T05:42:58;8.60;99.90
13346;DHT22;6742;48.036;15.780;2023-04-01T05:45:26;8.60;99.90
13346;DHT22;6742;48.036;15.780;2023-04-01T05:47:53;8.60;99.90
13346;DHT22;6742;48.036;15.780;2023-04-01T05:50:21;8.70;99.90
13346;DHT22;6742;48.036;15.780;2023-04-01T05:52:48;8.70;99.90
13346;DHT22;6742;48.036;15.780;2023-04-01T05:55:15;8.70;99.90
13346;DHT22;6742;48.036;15.780;2023-04-01T05:57:44;8.70;99.90
13346;DHT22;6742;48.036;15.780;2023-04-01T06:00:13;8.70;99.90
13346;DHT22;6742;48.036;15.780;2023-04-01T06:02:40;8.80;99.90
13346;DHT22;6742;48.036;15.780;2023-04-01T06:05:17;8.80;99.90
13346;DHT22;6742;48.036;15.780;2023-04-01T06:07:46;8.80;99.90
13346;DHT22;6742;48.036;15.780;2023-04-01T06:10:15;8.80;99.90
13346;DHT22;6742;48.036;15.780;2023-04-01T06:12:55;8.90;99.90
13346;DHT22;6742;48.036;15.780;2023-04-01T06:15:29;8.90;99.90
13346;DHT22;6742;48.036;15.780;2023-04-01T06:21:12;9.00;99.90
13346;DHT22;6742;48.036;15.780;2023-04-01T06:23:54;9.00;99.90
13346;DHT22;6742;48.036;15.780;2023-04-01T06:26:31;9.00;99.90
13346;DHT22;6742;48.036;15.780;2023-04-01T06:32:08;9.00;99.90
13346;DHT22;6742;48.036;15.780;2023-04-01T06:34:58;9.00;99.90
13346;DHT22;6742;48.036;15.780;2023-04-01T06:37:43;9.10;99.90
13346;DHT22;6742;48.036;15.780;2023-04-01T06:40:40;9.10;99.90
13346;DHT22;6742;48.036;15.780;2023-04-01T06:43:14;9.10;99.90
13346;DHT22;6742;48.036;15.780;2023-04-01T06:45:47;9.20;99.90
13346;DHT22;6742;48.036;15.780;2023-04-01T06:51:13;9.20;99.90
13346;DHT22;6742;48.036;15.780;2023-04-01T06:53:44;9.30;99.90
13346;DHT22;6742;48.036;15.780;2023-04-01T06:56:16;9.30;99.90
13346;DHT22;6742;48.036;15.780;2023-04-01T06:58:46;9.40;99.90
13346;DHT22;6742;48.036;15.780;2023-04-01T07:01:19;9.40;99.90
13346;DHT22;6742;48.036;15.780;2023-04-01T07:03:51;9.50;99.90
13346;DHT22;6742;48.036;15.780;2023-04-01T07:06:26;9.50;99.90
13346;DHT22;6742;48.036;15.780;2023-04-01T07:08:56;9.50;99.90
13346;DHT22;6742;48.036;15.780;2023-04-01T07:11:31;9.60;99.90
13346;DHT22;6742;48.036;15.780;2023-04-01T07:14:01;9.70;99.90
13346;DHT22;6742;48.036;15.780;2023-04-01T07:16:32;9.80;99.90
13346;DHT22;6742;48.036;15.780;2023-04-01T07:19:03;9.90;99.90
13346;DHT22;6742;48.036;15.780;2023-04-01T07:21:37;9.90;99.90
13346;DHT22;6742;48.036;15.780;2023-04-01T07:24:11;9.90;99.90
13346;DHT22;6742;48.036;15.780;2023-04-01T07:26:43;9.90;99.90
13346;DHT22;6742;48.036;15.780;2023-04-01T07:29:12;10.10;99.90
13346;DHT22;6742;48.036;15.780;2023-04-01T07:32:14;10.10;99.90
13346;DHT22;6742;48.036;15.780;2023-04-01T07:34:56;10.20;99.90
13346;DHT22;6742;48.036;15.780;2023-04-01T07:37:31;10.00;99.90
13346;DHT22;6742;48.036;15.780;2023-04-01T07:40:10;10.00;99.90
13346;DHT22;6742;48.036;15.780;2023-04-01T07:42:49;9.90;99.90
13346;DHT22;6742;48.036;15.780;2023-04-01T07:45:24;9.90;99.90
13346;DHT22;6742;48.036;15.780;2023-04-01T07:48:07;9.90;99.90
13346;DHT22;6742;48.036;15.780;2023-04-01T07:50:39;10.00;99.90
13346;DHT22;6742;48.036;15.780;2023-04-01T07:53:12;10.10;99.90
13346;DHT22;6742;48.036;15.780;2023-04-01T07:55:45;10.10;99.90
13346;DHT22;6742;48.036;15.780;2023-04-01T07:58:19;10.00;99.90
13346;DHT22;6742;48.036;15.780;2023-04-01T08:00:53;10.00;99.90
13346;DHT22;6742;48.036;15.780;2023-04-01T08:03:48;10.00;99.90
13346;DHT22;6742;48.036;15.780;2023-04-01T08:06:24;10.00;99.90
13346;DHT22;6742;48.036;15.780;2023-04-01T08:09:00;10.20;99.90
13346;DHT22;6742;48.036;15.780;2023-04-01T08:11:47;10.40;99.90
13346;DHT22;6742;48.036;15.780;2023-04-01T08:14:24;10.50;99.90
13346;DHT22;6742;48.036;15.780;2023-04-01T08:16:58;10.60;99.90
13346;DHT22;6742;48.036;15.780;2023-04-01T08:19:43;10.60;99.90
13346;DHT22;6742;48.036;15.780;2023-04-01T08:22:18;10.70;99.90
13346;DHT22;6742;48.036;15.780;2023-04-01T08:24:47;10.90;99.90
13346;DHT22;6742;48.036;15.780;2023-04-01T08:27:19;11.10;99.90
13346;DHT22;6742;48.036;15.780;2023-04-01T08:29:51;11.30;99.90
13346;DHT22;6742;48.036;15.780;2023-04-01T08:32:26;11.40;99.90
13346;DHT22;6742;48.036;15.780;2023-04-01T08:35:01;11.30;99.90
13346;DHT22;6742;48.036;15.780;2023-04-01T08:37:32;11.40;99.90
13346;DHT22;6742;48.036;15.780;2023-04-01T08:40:04;11.40;99.90
13346;DHT22;6742;48.036;15.780;2023-04-01T08:42:53;11.40;99.90
13346;DHT22;6742;48.036;15.780;2023-04-01T08:48:48;11.80;99.90
13346;DHT22;6742;48.036;15.780;2023-04-01T08:54:43;12.10;99.90
13346;DHT22;6742;48.036;15.780;2023-04-01T08:57:17;11.90;99.90
13346;DHT22;6742;48.036;15.780;2023-04-01T09:00:00;11.80;99.90
13346;DHT22;6742;48.036;15.780;2023-04-01T09:05:46;11.40;99.90
13346;DHT22;6742;48.036;15.780;2023-04-01T09:08:29;11.70;99.90
13346;DHT22;6742;48.036;15.780;2023-04-01T09:11:08;11.70;99.90
13346;DHT22;6742;48.036;15.780;2023-04-01T09:13:52;11.60;99.90
13346;DHT22;6742;48.036;15.780;2023-04-01T09:16:58;11.70;99.90
13346;DHT22;6742;48.036;15.780;2023-04-01T09:19:33;12.10;99.90
13346;DHT22;6742;48.036;15.780;2023-04-01T09:22:34;12.50;99.90
13346;DHT22;6742;48.036;15.780;2023-04-01T09:25:38;12.60;99.90
13346;DHT22;6742;48.036;15.780;2023-04-01T09:28:17;12.10;99.90
13346;DHT22;6742;48.036;15.780;2023-04-01T09:31:06;11.80;99.90
13346;DHT22;6742;48.036;15.780;2023-04-01T09:36:41;12.30;99.90
13346;DHT22;6742;48.036;15.780;2023-04-01T09:39:25;12.20;99.90
13346;DHT22;6742;48.036;15.780;2023-04-01T09:42:21;12.10;99.90
13346;DHT22;6742;48.036;15.780;2023-04-01T09:44:58;12.10;99.90
13346;DHT22;6742;48.036;15.780;2023-04-01T09:47:39;12.40;99.90
13346;DHT22;6742;48.036;15.780;2023-04-01T09:50:27;12.90;99.90
13346;DHT22;6742;48.036;15.780;2023-04-01T09:53:05;13.30;99.90
13346;DHT22;6742;48.036;15.780;2023-04-01T09:58:40;13.80;99.90
13346;DHT22;6742;48.036;15.780;2023-04-01T10:01:41;14.60;99.90
13346;DHT22;6742;48.036;15.780;2023-04-01T10:07:43;14.40;99.90
13346;DHT22;6742;48.036;15.780;2023-04-01T10:10:42;13.90;99.90
13346;DHT22;6742;48.036;15.780;2023-04-01T10:19:55;13.10;99.90
13346;DHT22;6742;48.036;15.780;2023-04-01T10:22:56;12.80;99.90
13346;DHT22;6742;48.036;15.780;2023-04-01T10:25:55;12.80;99.90
13346;DHT22;6742;48.036;15.780;2023-04-01T10:35:17;13.10;99.90
13346;DHT22;6742;48.036;15.780;2023-04-01T10:38:23;12.90;99.90
13346;DHT22;6742;48.036;15.780;2023-04-01T10:44:18;12.50;99.90
13346;DHT22;6742;48.036;15.780;2023-04-01T10:50:27;12.30;99.90
13346;DHT22;6742;48.036;15.780;2023-04-01T10:53:27;12.20;99.90
13346;DHT22;6742;48.036;15.780;2023-04-01T10:56:36;12.20;99.90
13346;DHT22;6742;48.036;15.780;2023-04-01T11:08:56;12.40;99.90
13346;DHT22;6742;48.036;15.780;2023-04-01T11:15:04;12.60;99.90
13346;DHT22;6742;48.036;15.780;2023-04-01T11:20:54;12.80;99.90
13346;DHT22;6742;48.036;15.780;2023-04-01T11:23:33;12.80;99.90
13346;DHT22;6742;48.036;15.780;2023-04-01T11:26:15;12.80;99.90
13346;DHT22;6742;48.036;15.780;2023-04-01T11:29:12;12.70;99.90
13346;DHT22;6742;48.036;15.780;2023-04-01T11:31:55;12.70;99.90
13346;DHT22;6742;48.036;15.780;2023-04-01T11:34:40;12.80;99.90
13346;DHT22;6742;48.036;15.780;2023-04-01T11:37:24;13.00;99.90
13346;DHT22;6742;48.036;15.780;2023-04-01T11:40:05;13.40;99.90
13346;DHT22;6742;48.036;15.780;2023-04-01T11:42:43;13.80;99.90
13346;DHT22;6742;48.036;15.780;2023-04-01T11:45:24;14.00;99.90
13346;DHT22;6742;48.036;15.780;2023-04-01T11:51:00;14.30;99.90
13346;DHT22;6742;48.036;15.780;2023-04-01T11:53:44;14.30;99.90
13346;DHT22;6742;48.036;15.780;2023-04-01T11:56:21;14.30;99.90
13346;DHT22;6742;48.036;15.780;2023-04-01T11:59:03;14.20;99.90
13346;DHT22;6742;48.036;15.780;2023-04-01T12:01:51;13.80;99.90
13346;DHT22;6742;48.036;15.780;2023-04-01T12:07:34;13.90;99.90
13346;DHT22;6742;48.036;15.780;2023-04-01T12:10:16;14.20;99.90
13346;DHT22;6742;48.036;15.780;2023-04-01T12:12:52;14.30;99.90
13346;DHT22;6742;48.036;15.780;2023-04-01T12:15:32;14.40;99.90
13346;DHT22;6742;48.036;15.780;2023-04-01T12:18:07;14.20;99.90
13346;DHT22;6742;48.036;15.780;2023-04-01T12:20:47;14.10;99.90
13346;DHT22;6742;48.036;15.780;2023-04-01T12:23:37;14.10;99.90
13346;DHT22;6742;48.036;15.780;2023-04-01T12:26:22;14.40;99.90
13346;DHT22;6742;48.036;15.780;2023-04-01T12:29:04;14.60;99.90
13346;DHT22;6742;48.036;15.780;2023-04-01T12:31:40;14.80;99.90
13346;DHT22;6742;48.036;15.780;2023-04-01T12:37:16;14.50;99.90
13346;DHT22;6742;48.036;15.780;2023-04-01T12:39:56;14.70;99.90
13346;DHT22;6742;48.036;15.780;2023-04-01T12:42:41;14.90;99.90
13346;DHT22;6742;48.036;15.780;2023-04-01T12:45:32;14.90;99.90
13346;DHT22;6742;48.036;15.780;2023-04-01T12:48:23;14.90;99.80
13346;DHT22;6742;48.036;15.780;2023-04-01T12:56:44;14.60;98.90
13346;DHT22;6742;48.036;15.780;2023-04-01T12:59:29;14.40;98.40
13346;DHT22;6742;48.036;15.780;2023-04-01T13:02:11;14.00;99.00
13346;DHT22;6742;48.036;15.780;2023-04-01T13:08:15;13.70;99.90
13346;DHT22;6742;48.036;15.780;2023-04-01T13:11:02;13.90;99.90
13346;DHT22;6742;48.036;15.780;2023-04-01T13:13:57;14.10;99.90
13346;DHT22;6742;48.036;15.780;2023-04-01T13:16:29;14.10;99.50
13346;DHT22;6742;48.036;15.780;2023-04-01T13:19:02;14.10;99.90
13346;DHT22;6742;48.036;15.780;2023-04-01T13:21:43;14.10;99.70
13346;DHT22;6742;48.036;15.780;2023-04-01T13:24:28;14.10;99.90
13346;DHT22;6742;48.036;15.780;2023-04-01T13:27:01;14.20;99.60
13346;DHT22;6742;48.036;15.780;2023-04-01T13:29:33;14.10;99.10
13346;DHT22;6742;48.036;15.780;2023-04-01T13:32:13;14.10;99.90
13346;DHT22;6742;48.036;15.780;2023-04-01T13:34:56;14.20;99.20
13346;DHT22;6742;48.036;15.780;2023-04-01T13:37:38;14.00;97.90
13346;DHT22;6742;48.036;15.780;2023-04-01T13:40:34;13.80;98.00
13346;DHT22;6742;48.036;15.780;2023-04-01T13:43:11;13.60;98.50
13346;DHT22;6742;48.036;15.780;2023-04-01T13:45:50;13.50;98.50
13346;DHT22;6742;48.036;15.780;2023-04-01T13:48:37;13.60;98.50
13346;DHT22;6742;48.036;15.780;2023-04-01T13:54:28;13.80;99.20
13346;DHT22;6742;48.036;15.780;2023-04-01T13:57:12;14.10;98.70
13346;DHT22;6742;48.036;15.780;2023-04-01T13:59:56;14.20;98.20
13346;DHT22;6742;48.036;15.780;2023-04-01T14:02:42;14.10;97.60
13346;DHT22;6742;48.036;15.780;2023-04-01T14:05:34;14.10;98.90
13346;DHT22;6742;48.036;15.780;2023-04-01T14:08:13;14.20;98.50
13346;DHT22;6742;48.036;15.780;2023-04-01T14:10:48;14.30;98.30
13346;DHT22;6742;48.036;15.780;2023-04-01T14:13:26;14.30;98.20
13346;DHT22;6742;48.036;15.780;2023-04-01T14:16:03;14.20;97.40
13346;DHT22;6742;48.036;15.780;2023-04-01T14:18:52;14.00;98.20
13346;DHT22;6742;48.036;15.780;2023-04-01T14:21:33;13.90;98.50
13346;DHT22;6742;48.036;15.780;2023-04-01T14:24:22;13.60;98.60
13346;DHT22;6742;48.036;15.780;2023-04-01T14:27:13;13.50;99.10
13346;DHT22;6742;48.036;15.780;2023-04-01T14:32:40;13.30;99.50
13346;DHT22;6742;48.036;15.780;2023-04-01T14:35:28;13.20;99.90
13346;DHT22;6742;48.036;15.780;2023-04-01T14:38:24;13.00;99.90
13346;DHT22;6742;48.036;15.780;2023-04-01T14:40:56;12.80;99.90
13346;DHT22;6742;48.036;15.780;2023-04-01T14:43:47;12.50;99.90
13346;DHT22;6742;48.036;15.780;2023-04-01T14:49:21;12.20;99.90
13346;DHT22;6742;48.036;15.780;2023-04-01T14:51:49;12.20;99.90
13346;DHT22;6742;48.036;15.780;2023-04-01T14:54:21;12.00;99.90
13346;DHT22;6742;48.036;15.780;2023-04-01T14:57:08;11.90;99.90
13346;DHT22;6742;48.036;15.780;2023-04-01T14:59:41;11.80;99.90
13346;DHT22;6742;48.036;15.780;2023-04-01T15:02:33;11.90;99.90
13346;DHT22;6742;48.036;15.780;2023-04-01T15:05:14;11.90;99.90
13346;DHT22;6742;48.036;15.780;2023-04-01T15:08:07;12.00;99.90
13346;DHT22;6742;48.036;15.780;2023-04-01T15:13:47;11.90;99.90
13346;DHT22;6742;48.036;15.780;2023-04-01T15:16:23;11.80;99.90
13346;DHT22;6742;48.036;15.780;2023-04-01T15:19:00;11.90;99.90
13346;DHT22;6742;48.036;15.780;2023-04-01T15:21:59;12.10;99.90
13346;DHT22;6742;48.036;15.780;2023-04-01T15:24:41;12.20;99.90
13346;DHT22;6742;48.036;15.780;2023-04-01T15:27:20;12.20;99.90
13346;DHT22;6742;48.036;15.780;2023-04-01T15:32:56;12.40;99.90
13346;DHT22;6742;48.036;15.780;2023-04-01T15:35:35;12.50;99.90
13346;DHT22;6742;48.036;15.780;2023-04-01T15:38:06;12.60;99.90
13346;DHT22;6742;48.036;15.780;2023-04-01T15:40:41;12.60;99.90
13346;DHT22;6742;48.036;15.780;2023-04-01T15:43:18;12.40;99.90
13346;DHT22;6742;48.036;15.780;2023-04-01T15:45:58;12.30;99.90
13346;DHT22;6742;48.036;15.780;2023-04-01T15:48:49;12.30;99.90
13346;DHT22;6742;48.036;15.780;2023-04-01T15:51:29;12.20;99.90
13346;DHT22;6742;48.036;15.780;2023-04-01T15:54:23;12.30;99.90
13346;DHT22;6742;48.036;15.780;2023-04-01T15:57:03;12.30;99.90
13346;DHT22;6742;48.036;15.780;2023-04-01T15:59:54;12.30;99.90
13346;DHT22;6742;48.036;15.780;2023-04-01T16:02:31;12.10;99.90
13346;DHT22;6742;48.036;15.780;2023-04-01T16:05:05;12.10;99.90
13346;DHT22;6742;48.036;15.780;2023-04-01T16:07:52;12.10;99.90
13346;DHT22;6742;48.036;15.780;2023-04-01T16:13:26;11.90;99.90
13346;DHT22;6742;48.036;15.780;2023-04-01T16:16:02;11.70;99.90
13346;DHT22;6742;48.036;15.780;2023-04-01T16:18:44;11.60;99.90
13346;DHT22;6742;48.036;15.780;2023-04-01T16:21:24;11.40;99.90
13346;DHT22;6742;48.036;15.780;2023-04-01T16:23:57;11.20;99.90
13346;DHT22;6742;48.036;15.780;2023-04-01T16:26:29;10.90;99.90
13346;DHT22;6742;48.036;15.780;2023-04-01T16:29:09;10.80;99.90
13346;DHT22;6742;48.036;15.780;2023-04-01T16:31:43;10.60;99.90
13346;DHT22;6742;48.036;15.780;2023-04-01T16:34:17;10.60;99.90
13346;DHT22;6742;48.036;15.780;2023-04-01T16:36:50;10.40;99.90
13346;DHT22;6742;48.036;15.780;2023-04-01T16:39:27;10.20;99.90
13346;DHT22;6742;48.036;15.780;2023-04-01T16:42:12;10.10;99.90
13346;DHT22;6742;48.036;15.780;2023-04-01T16:44:49;10.10;99.90
13346;DHT22;6742;48.036;15.780;2023-04-01T16:47:19;10.10;99.90
13346;DHT22;6742;48.036;15.780;2023-04-01T16:49:52;10.00;99.90
13346;DHT22;6742;48.036;15.780;2023-04-01T16:52:36;10.00;99.90
13346;DHT22;6742;48.036;15.780;2023-04-01T16:55:16;10.00;99.90
13346;DHT22;6742;48.036;15.780;2023-04-01T16:57:48;9.90;99.90
13346;DHT22;6742;48.036;15.780;2023-04-01T17:00:23;9.90;99.90
13346;DHT22;6742;48.036;15.780;2023-04-01T17:02:58;9.90;99.90
13346;DHT22;6742;48.036;15.780;2023-04-01T17:05:55;9.80;99.90
13346;DHT22;6742;48.036;15.780;2023-04-01T17:08:37;9.90;99.90
13346;DHT22;6742;48.036;15.780;2023-04-01T17:11:11;9.80;99.90
13346;DHT22;6742;48.036;15.780;2023-04-01T17:13:46;9.90;99.90
13346;DHT22;6742;48.036;15.780;2023-04-01T17:16:45;9.80;99.90
13346;DHT22;6742;48.036;15.780;2023-04-01T17:19:26;9.90;99.90
13346;DHT22;6742;48.036;15.780;2023-04-01T17:22:01;9.90;99.90
13346;DHT22;6742;48.036;15.780;2023-04-01T17:24:42;9.90;99.90
13346;DHT22;6742;48.036;15.780;2023-04-01T17:27:23;9.90;99.90
13346;DHT22;6742;48.036;15.780;2023-04-01T17:30:10;9.80;99.90
13346;DHT22;6742;48.036;15.780;2023-04-01T17:32:48;9.80;99.90
13346;DHT22;6742;48.036;15.780;2023-04-01T17:35:23;9.80;99.90
13346;DHT22;6742;48.036;15.780;2023-04-01T17:38:01;9.90;99.90
13346;DHT22;6742;48.036;15.780;2023-04-01T17:40:40;9.80;99.90
13346;DHT22;6742;48.036;15.780;2023-04-01T17:43:20;9.80;99.90
13346;DHT22;6742;48.036;15.780;2023-04-01T17:45:53;9.80;99.90
13346;DHT22;6742;48.036;15.780;2023-04-01T17:48:27;9.80;99.90
13346;DHT22;6742;48.036;15.780;2023-04-01T17:51:12;9.80;99.90
13346;DHT22;6742;48.036;15.780;2023-04-01T17:53:47;9.70;99.90
13346;DHT22;6742;48.036;15.780;2023-04-01T17:56:24;9.70;99.90
13346;DHT22;6742;48.036;15.780;2023-04-01T17:59:01;9.70;99.90
13346;DHT22;6742;48.036;15.780;2023-04-01T18:01:40;9.70;99.90
13346;DHT22;6742;48.036;15.780;2023-04-01T18:04:24;9.70;99.90
13346;DHT22;6742;48.036;15.780;2023-04-01T18:07:11;9.60;99.90
13346;DHT22;6742;48.036;15.780;2023-04-01T18:09:52;9.60;99.90
13346;DHT22;6742;48.036;15.780;2023-04-01T18:12:31;9.50;99.90
13346;DHT22;6742;48.036;15.780;2023-04-01T18:15:19;9.50;99.90
13346;DHT22;6742;48.036;15.780;2023-04-01T18:17:57;9.50;99.90
13346;DHT22;6742;48.036;15.780;2023-04-01T18:20:37;9.40;99.90